KBAM

Battle Mountain Airport

Battle Mountain, Nevada, USA
METAR KBAM 181655Z AUTO 00000KT 10SM CLR 09/M05 A3028 RMK AO1
Observed Flight Rules
Oct-18 @ 16:55 UTC (7 minutes ago) Visual Flight Rules
Visibility Clouds
10 miles
  • Clear skies
Temperatures Readings
Current 9°C / 48°F
Dewpoint -5°C / 23°F
Humidity 37%
Altimeter 30.28" Hg
Pressure 1025 hPa
METAR KBAM 181655Z AUTO 00000KT 10SM CLR 09/M05 A3028 RMK AO1
Observed Flight Rules
Oct-18 @ 16:55 UTC
(7 minutes ago)
VFR
Clouds
  • Clear skies
Temperature Dewpoint
9°C / 48°F -5°C / 23°F
Humidity Altimeter Pressure
37% 30.28" Hg 1025 hPa